Time;durP1;ratioP1;P1;durP2;ratioP2;P2;SDS_P1;SDS_P2;PMS_P1;PMS_P2;Temp;Humidity;BMP_temperature;BMP_pressure;BME280_temperature;BME280_humidity;BME280_pressure;Samples;Min_cycle;Max_cycle;Signal;HPM_P1;HPM_P2
2022/07/01 00:02:13;;;;;;;3.28;1.30;;;24.30;96.70;;;;;;4871473;29;20058;-79
2022/07/01 00:04:46;;;;;;;2.75;1.38;;;24.30;96.70;;;;;;4871241;29;20140;-79
2022/07/01 00:07:32;;;;;;;3.80;1.48;;;24.20;96.70;;;;;;4863931;29;20528;-80
2022/07/01 00:10:01;;;;;;;3.13;1.25;;;24.10;96.70;;;;;;4854816;29;20528;-80
2022/07/01 00:12:30;;;;;;;2.42;1.63;;;24.20;96.70;;;;;;4871831;29;20049;-80
2022/07/01 00:14:58;;;;;;;3.38;1.25;;;24.20;96.70;;;;;;4870464;29;20045;-80
2022/07/01 00:17:26;;;;;;;3.63;1.40;;;24.20;96.70;;;;;;4856116;29;20089;-80
2022/07/01 00:19:54;;;;;;;5.55;1.40;;;24.30;96.70;;;;;;4869803;29;20485;-79
2022/07/01 00:22:22;;;;;;;2.47;1.33;;;24.30;96.70;;;;;;4871962;29;20045;-80
2022/07/01 00:24:50;;;;;;;5.47;1.45;;;24.20;96.70;;;;;;4888245;29;20063;-79
2022/07/01 00:27:17;;;;;;;4.30;1.30;;;24.20;96.70;;;;;;4873540;29;20043;-79
2022/07/01 00:29:47;;;;;;;3.83;0.98;;;24.10;96.70;;;;;;4872965;29;20053;-80
2022/07/01 00:32:15;;;;;;;2.63;1.15;;;24.10;96.70;;;;;;4868013;29;20465;-80
2022/07/01 00:34:43;;;;;;;2.38;1.33;;;24.00;96.70;;;;;;4870208;29;20063;-81
2022/07/01 00:37:11;;;;;;;2.55;1.13;;;23.90;96.70;;;;;;4855426;29;20049;-80
2022/07/01 00:39:39;;;;;;;6.00;1.50;;;23.80;96.70;;;;;;4855763;29;20061;-82
2022/07/01 00:42:08;;;;;;;3.10;1.17;;;23.80;96.70;;;;;;4856223;29;20059;-81
2022/07/01 00:44:37;;;;;;;3.08;1.10;;;23.90;96.70;;;;;;4885839;29;20232;-81
2022/07/01 00:47:10;;;;;;;1.50;1.05;;;23.90;96.70;;;;;;4870909;29;20096;-80
2022/07/01 00:49:39;;;;;;;4.93;1.50;;;23.80;96.70;;;;;;4874336;29;20056;-81
2022/07/01 00:52:09;;;;;;;4.88;1.10;;;23.70;96.70;;;;;;4870143;29;20105;-79
2022/07/01 00:54:39;;;;;;;3.22;1.10;;;23.60;96.70;;;;;;4870777;29;20057;-80
2022/07/01 00:57:08;;;;;;;3.58;1.00;;;23.70;96.70;;;;;;4874232;29;20570;-81
2022/07/01 00:59:36;;;;;;;3.45;1.08;;;23.60;96.70;;;;;;4872301;29;20117;-80
2022/07/01 01:02:07;;;;;;;4.28;1.45;;;23.60;96.70;;;;;;4855761;29;20068;-80
2022/07/01 01:04:35;;;;;;;4.50;1.17;;;23.50;96.70;;;;;;4874308;29;20049;-81
2022/07/01 01:07:04;;;;;;;2.92;1.00;;;23.40;96.70;;;;;;4879099;29;20044;-81
2022/07/01 01:09:33;;;;;;;4.68;1.33;;;23.30;96.70;;;;;;4869890;29;20140;-80
2022/07/01 01:12:01;;;;;;;5.35;1.13;;;23.40;96.70;;;;;;4869110;29;20041;-81
2022/07/01 01:14:29;;;;;;;1.80;1.05;;;23.30;96.70;;;;;;4869044;29;20606;-82
2022/07/01 01:16:57;;;;;;;2.55;0.90;;;23.40;96.70;;;;;;4885581;29;20064;-82
2022/07/01 01:19:26;;;;;;;2.38;1.20;;;23.40;96.70;;;;;;4870773;29;20076;-81
2022/07/01 01:21:56;;;;;;;3.00;1.10;;;23.40;96.70;;;;;;4871600;29;20068;-81
2022/07/01 01:24:24;;;;;;;5.55;1.33;;;23.30;96.70;;;;;;4856257;29;20048;-81
2022/07/01 01:26:52;;;;;;;2.53;1.10;;;23.30;96.70;;;;;;4868095;29;20470;-81
2022/07/01 01:29:20;;;;;;;5.40;1.30;;;23.30;96.70;;;;;;4855371;29;20149;-80
2022/07/01 01:31:47;;;;;;;2.85;1.23;;;23.30;96.70;;;;;;4871724;29;20049;-81
2022/07/01 01:34:15;;;;;;;2.38;1.63;;;23.30;96.70;;;;;;4871694;29;20132;-81
2022/07/01 01:36:44;;;;;;;3.90;1.23;;;23.20;96.70;;;;;;4871347;29;20136;-82
2022/07/01 01:39:16;;;;;;;3.60;1.08;;;23.10;96.70;;;;;;4872237;29;20045;-80
2022/07/01 01:41:44;;;;;;;4.18;1.25;;;23.00;96.70;;;;;;4869265;29;20054;-80
2022/07/01 01:44:13;;;;;;;3.25;1.20;;;22.90;96.70;;;;;;4869756;29;20121;-80
2022/07/01 01:46:41;;;;;;;2.95;1.08;;;22.80;96.70;;;;;;4870659;29;20575;-81
2022/07/01 01:49:10;;;;;;;2.53;1.20;;;22.80;96.70;;;;;;4854956;29;20065;-80
2022/07/01 01:51:38;;;;;;;2.50;1.15;;;22.70;96.70;;;;;;4870485;29;20210;-80
2022/07/01 01:54:07;;;;;;;2.08;1.20;;;22.60;96.70;;;;;;4870495;29;20488;-81
2022/07/01 01:56:36;;;;;;;2.55;1.10;;;22.60;96.70;;;;;;4870545;29;20053;-81
2022/07/01 01:59:04;;;;;;;2.60;1.17;;;22.70;96.70;;;;;;4871191;29;20780;-81
2022/07/01 02:01:33;;;;;;;2.00;1.20;;;22.70;96.70;;;;;;4886291;29;20650;-81
2022/07/01 02:04:01;;;;;;;1.88;1.30;;;22.70;96.70;;;;;;4873973;29;20045;-81
2022/07/01 02:06:28;;;;;;;3.10;0.90;;;22.60;96.70;;;;;;4886144;29;20053;-81
2022/07/01 02:08:56;;;;;;;2.33;1.27;;;22.60;96.70;;;;;;4874402;29;20056;-81
2022/07/01 02:11:24;;;;;;;6.13;1.67;;;22.50;96.70;;;;;;4873705;29;20515;-81
2022/07/01 02:13:54;;;;;;;2.78;1.30;;;22.50;96.70;;;;;;4875614;29;20037;-81
2022/07/01 02:16:22;;;;;;;4.55;1.60;;;22.50;96.70;;;;;;4874183;29;20412;-81
2022/07/01 02:18:50;;;;;;;2.88;1.15;;;22.40;96.70;;;;;;4871386;29;20055;-81
2022/07/01 02:21:17;;;;;;;2.08;1.30;;;22.50;96.70;;;;;;4873344;29;20052;-81
2022/07/01 02:23:45;;;;;;;4.80;1.77;;;22.50;96.70;;;;;;4873215;29;20049;-81
2022/07/01 02:26:13;;;;;;;2.80;1.23;;;22.40;96.70;;;;;;4873051;29;20140;-80
2022/07/01 02:28:41;;;;;;;3.55;1.20;;;22.30;96.70;;;;;;4872848;29;20152;-80
2022/07/01 02:31:10;;;;;;;5.50;1.88;;;22.30;96.70;;;;;;4888459;29;20121;-81
2022/07/01 02:33:38;;;;;;;4.45;1.30;;;22.30;96.70;;;;;;4871605;29;20053;-81
2022/07/01 02:36:06;;;;;;;4.65;1.65;;;22.40;96.70;;;;;;4869252;29;20041;-81
2022/07/01 02:38:34;;;;;;;3.65;1.30;;;22.50;96.70;;;;;;4872076;29;20531;-81
2022/07/01 02:41:02;;;;;;;2.75;1.33;;;22.50;96.70;;;;;;4858122;29;20053;-80
2022/07/01 02:43:30;;;;;;;5.28;1.40;;;22.40;96.70;;;;;;4874805;29;20045;-81
2022/07/01 02:45:58;;;;;;;3.10;1.17;;;22.20;96.70;;;;;;4867857;29;20052;-80
2022/07/01 02:48:27;;;;;;;3.75;1.60;;;22.20;96.70;;;;;;4886834;29;20072;-80
2022/07/01 02:50:55;;;;;;;1.92;0.98;;;22.20;96.70;;;;;;4872807;29;20045;-80
2022/07/01 02:53:23;;;;;;;2.95;1.58;;;22.30;96.70;;;;;;4857768;29;20049;-80
2022/07/01 02:55:51;;;;;;;3.55;1.40;;;22.40;96.70;;;;;;4865326;29;20143;-79
2022/07/01 02:58:19;;;;;;;3.33;1.55;;;22.30;96.70;;;;;;4871875;29;20114;-80
2022/07/01 03:00:48;;;;;;;5.40;1.60;;;22.20;96.70;;;;;;4872540;29;20044;-81
2022/07/01 03:03:16;;;;;;;2.58;1.50;;;22.20;96.70;;;;;;4863306;29;20054;-80
2022/07/01 03:05:47;;;;;;;3.65;1.58;;;22.20;96.70;;;;;;4873058;29;20124;-80
2022/07/01 03:08:15;;;;;;;3.38;1.35;;;22.20;96.70;;;;;;4874662;29;20049;-80
2022/07/01 03:10:42;;;;;;;2.90;1.85;;;22.10;96.70;;;;;;4871918;29;20051;-80
2022/07/01 03:13:10;;;;;;;2.58;1.15;;;22.10;96.70;;;;;;4871540;29;20100;-80
2022/07/01 03:15:38;;;;;;;2.00;1.30;;;22.10;96.70;;;;;;4872551;29;20057;-80
2022/07/01 03:18:06;;;;;;;4.80;1.20;;;22.20;96.70;;;;;;4871120;29;20109;-80
2022/07/01 03:20:35;;;;;;;3.22;1.13;;;22.20;96.70;;;;;;4875907;29;20168;-81
2022/07/01 03:23:05;;;;;;;4.55;1.45;;;22.10;96.70;;;;;;4875031;29;20069;-81
2022/07/01 03:25:32;;;;;;;2.63;1.20;;;22.10;96.70;;;;;;4871719;29;20048;-80
2022/07/01 03:28:03;;;;;;;5.57;1.58;;;22.00;96.70;;;;;;4872335;29;20063;-79
2022/07/01 03:30:31;;;;;;;1.67;1.08;;;21.90;96.70;;;;;;4867097;29;20049;-80
2022/07/01 03:32:59;;;;;;;2.00;1.20;;;21.90;96.70;;;;;;4855781;29;20045;-81
2022/07/01 03:35:35;;;;;;;2.28;1.15;;;22.00;96.70;;;;;;4856576;29;20560;-80
2022/07/01 03:38:06;;;;;;;5.75;1.42;;;22.00;96.70;;;;;;4874472;29;20045;-79
2022/07/01 03:40:34;;;;;;;2.17;1.25;;;21.90;96.70;;;;;;4870057;29;20572;-80
2022/07/01 03:43:02;;;;;;;2.38;1.10;;;21.90;96.70;;;;;;4879092;29;20180;-81
2022/07/01 03:45:31;;;;;;;2.40;1.27;;;21.80;96.70;;;;;;4873647;29;20673;-80
2022/07/01 03:48:02;;;;;;;3.10;1.17;;;21.70;96.70;;;;;;4890273;29;20104;-81
2022/07/01 03:50:30;;;;;;;2.70;1.50;;;21.80;96.70;;;;;;4872646;29;20049;-82
2022/07/01 03:55:45;;;;;;;1.77;1.65;;;21.70;96.70;;;;;;4871172;29;20052;-81
2022/07/01 03:58:13;;;;;;;3.75;1.77;;;21.70;96.70;;;;;;4872008;29;20079;-81
2022/07/01 04:00:41;;;;;;;5.35;2.58;;;21.80;96.70;;;;;;4871119;29;20049;-82
2022/07/01 04:03:09;;;;;;;3.22;1.55;;;21.80;96.70;;;;;;4875533;29;20068;-81
2022/07/01 04:05:38;;;;;;;3.80;1.90;;;21.80;96.70;;;;;;4886693;29;20138;-81
2022/07/01 04:08:08;;;;;;;4.10;1.88;;;21.60;96.70;;;;;;4871292;29;20053;-81
2022/07/01 04:10:37;;;;;;;3.17;1.67;;;21.60;96.70;;;;;;4867996;29;20096;-81
2022/07/01 04:13:06;;;;;;;4.53;1.48;;;21.60;96.70;;;;;;4869753;29;20072;-81
2022/07/01 04:15:54;;;;;;;3.70;1.70;;;21.60;96.70;;;;;;4868303;29;20045;-81
2022/07/01 04:18:24;;;;;;;4.68;1.58;;;21.50;96.70;;;;;;4871781;29;20057;-80
2022/07/01 04:23:40;;;;;;;5.93;2.17;;;21.60;96.70;;;;;;4872287;29;20049;-79
2022/07/01 04:26:07;;;;;;;5.93;2.28;;;21.70;96.70;;;;;;4880267;29;20467;-80
2022/07/01 04:28:57;;;;;;;4.75;1.95;;;21.60;96.70;;;;;;4864774;29;20120;-80
2022/07/01 04:31:24;;;;;;;4.65;1.77;;;21.60;96.70;;;;;;4861223;29;20055;-81
2022/07/01 04:33:52;;;;;;;3.60;1.50;;;21.70;96.70;;;;;;4883668;29;20049;-82
2022/07/01 04:36:20;;;;;;;3.03;1.38;;;21.60;96.70;;;;;;4869019;29;20062;-81
2022/07/01 04:38:48;;;;;;;6.57;2.05;;;21.60;96.70;;;;;;4853257;29;20393;-80
2022/07/01 04:44:05;;;;;;;8.60;2.00;;;21.60;96.70;;;;;;4867848;29;20057;-81
2022/07/01 04:46:33;;;;;;;5.05;1.95;;;21.80;96.70;;;;;;4869901;29;20059;-82
2022/07/01 04:49:01;;;;;;;4.32;1.88;;;21.90;96.70;;;;;;4871120;29;20119;-81
2022/07/01 04:51:30;;;;;;;4.85;1.85;;;21.80;96.70;;;;;;4870323;29;20049;-82
2022/07/01 04:53:59;;;;;;;3.35;1.73;;;21.80;96.70;;;;;;4869383;29;20698;-81
2022/07/01 04:56:28;;;;;;;5.88;2.00;;;21.70;96.70;;;;;;4854390;29;20500;-81
2022/07/01 04:58:56;;;;;;;3.45;1.95;;;21.70;96.70;;;;;;4852844;29;20077;-79
2022/07/01 05:01:28;;;;;;;4.10;1.90;;;21.60;96.70;;;;;;4870434;29;20053;-81
2022/07/01 05:03:56;;;;;;;3.97;1.80;;;21.70;96.70;;;;;;4870034;29;20049;-82
2022/07/01 05:06:24;;;;;;;4.15;1.90;;;21.80;96.70;;;;;;4871013;29;20464;-81
2022/07/01 05:08:53;;;;;;;4.43;1.63;;;21.90;96.70;;;;;;4870375;29;20048;-81
2022/07/01 05:11:21;;;;;;;6.00;1.73;;;22.00;96.70;;;;;;4878916;29;20408;-81
2022/07/01 05:13:49;;;;;;;3.15;1.83;;;22.10;96.70;;;;;;4869504;29;20053;-81
2022/07/01 05:16:17;;;;;;;4.20;1.75;;;22.00;96.70;;;;;;4870124;29;20049;-81
2022/07/01 05:24:20;;;;;;;5.75;2.25;;;22.20;96.70;;;;;;4884316;29;20087;-81
2022/07/01 05:26:48;;;;;;;4.88;1.90;;;22.30;96.70;;;;;;4870555;29;20052;-80
2022/07/01 05:29:16;;;;;;;5.35;1.85;;;22.40;96.70;;;;;;4870197;29;20094;-80
2022/07/01 05:31:57;;;;;;;3.90;1.92;;;22.50;96.70;;;;;;4876257;29;20064;-81
2022/07/01 05:34:27;;;;;;;5.45;2.00;;;22.50;96.70;;;;;;4860965;29;20077;-79
2022/07/01 05:36:55;;;;;;;4.70;2.00;;;22.40;96.70;;;;;;4867579;29;20530;-82
2022/07/01 05:39:23;;;;;;;5.32;1.83;;;22.50;96.70;;;;;;4856390;29;20072;-82
2022/07/01 05:41:51;;;;;;;3.25;1.98;;;22.60;96.70;;;;;;4856260;29;20056;-82
2022/07/01 05:44:21;;;;;;;4.82;1.77;;;22.80;96.70;;;;;;4874907;29;20053;-81
2022/07/01 05:46:49;;;;;;;6.03;1.67;;;22.90;96.70;;;;;;4875108;29;20041;-81
2022/07/01 05:49:17;;;;;;;5.07;1.67;;;22.90;96.70;;;;;;4875008;29;20048;-81
2022/07/01 05:51:47;;;;;;;4.07;1.60;;;23.00;96.70;;;;;;4875729;29;20045;-81
2022/07/01 05:54:15;;;;;;;3.75;1.55;;;23.10;96.70;;;;;;4876165;29;20052;-80
2022/07/01 05:56:43;;;;;;;6.63;1.60;;;23.20;96.70;;;;;;4875228;29;20516;-81
2022/07/01 05:59:12;;;;;;;7.00;1.92;;;23.20;96.70;;;;;;4874610;29;20072;-81
2022/07/01 06:01:40;;;;;;;2.33;1.45;;;23.10;96.70;;;;;;4876018;29;20053;-81
2022/07/01 06:04:08;;;;;;;7.95;2.20;;;23.20;96.70;;;;;;4875382;29;20144;-87
2022/07/01 06:06:36;;;;;;;5.95;1.45;;;23.40;96.70;;;;;;4877609;29;20049;-86
2022/07/01 06:09:05;;;;;;;4.13;1.40;;;23.50;96.70;;;;;;4877356;29;20060;-86
2022/07/01 06:11:34;;;;;;;5.70;1.63;;;23.50;96.70;;;;;;4876314;29;20052;-85
2022/07/01 06:14:02;;;;;;;4.82;1.15;;;23.60;96.70;;;;;;4876789;29;20049;-85
2022/07/01 06:16:30;;;;;;;4.25;1.52;;;23.70;96.70;;;;;;4874547;29;20461;-80
2022/07/01 06:18:58;;;;;;;6.97;1.52;;;23.80;96.70;;;;;;4872501;29;20076;-78
2022/07/01 06:21:27;;;;;;;5.28;1.45;;;23.90;96.70;;;;;;4886779;29;20151;-78
2022/07/01 06:23:55;;;;;;;5.10;1.45;;;24.00;96.70;;;;;;4872586;29;20052;-78
2022/07/01 06:26:25;;;;;;;4.05;1.45;;;24.00;96.70;;;;;;4888454;29;20101;-79
2022/07/01 06:28:53;;;;;;;3.90;1.25;;;24.00;96.70;;;;;;4871982;29;20052;-80
2022/07/01 06:31:23;;;;;;;3.40;1.50;;;24.10;96.70;;;;;;4874007;29;20104;-84
2022/07/01 06:33:51;;;;;;;6.13;1.45;;;24.10;96.70;;;;;;4876949;29;20037;-84
2022/07/01 06:36:19;;;;;;;5.10;1.30;;;24.20;96.70;;;;;;4875566;29;20043;-84
2022/07/01 06:38:48;;;;;;;3.92;1.63;;;24.20;96.70;;;;;;4874595;29;20049;-85
2022/07/01 06:41:28;;;;;;;5.63;1.50;;;24.30;96.70;;;;;;4854345;29;20996;-81
2022/07/01 06:43:59;;;;;;;3.58;1.02;;;24.30;96.70;;;;;;4870612;29;20072;-77
2022/07/01 06:46:28;;;;;;;2.83;1.23;;;24.30;96.70;;;;;;4871546;29;20476;-77
2022/07/01 06:48:58;;;;;;;2.58;1.10;;;24.40;96.70;;;;;;4855796;29;20045;-77
2022/07/01 06:51:27;;;;;;;4.57;1.55;;;24.50;96.70;;;;;;4870956;29;20134;-77
2022/07/01 06:53:56;;;;;;;6.43;1.40;;;24.50;96.70;;;;;;4870728;29;20061;-77
2022/07/01 06:56:24;;;;;;;4.70;1.60;;;24.60;96.70;;;;;;4871857;29;20113;-76
2022/07/01 06:58:52;;;;;;;6.40;1.35;;;24.70;96.70;;;;;;4855440;29;20655;-76
2022/07/01 07:01:22;;;;;;;7.05;1.98;;;24.80;96.70;;;;;;4886642;29;20666;-77
2022/07/01 07:03:50;;;;;;;3.15;1.20;;;24.90;96.70;;;;;;4886587;29;20580;-77
2022/07/01 07:06:19;;;;;;;4.97;1.33;;;24.90;96.70;;;;;;4872753;29;20060;-76
2022/07/01 07:08:47;;;;;;;2.70;1.20;;;24.90;96.70;;;;;;4870974;29;20049;-77
2022/07/01 07:11:16;;;;;;;3.85;1.38;;;24.90;96.70;;;;;;4871450;29;20072;-76
2022/07/01 07:13:44;;;;;;;5.07;1.25;;;25.00;96.70;;;;;;4871783;29;20049;-76
2022/07/01 07:16:12;;;;;;;6.13;1.67;;;25.10;96.70;;;;;;4886941;29;20056;-77
2022/07/01 07:18:42;;;;;;;3.47;1.13;;;25.20;96.70;;;;;;4853691;29;20065;-78
2022/07/01 07:21:10;;;;;;;9.13;2.15;;;25.20;96.70;;;;;;4870910;29;20402;-78
2022/07/01 07:23:38;;;;;;;6.78;1.73;;;25.30;96.70;;;;;;4884384;29;20057;-77
2022/07/01 07:26:06;;;;;;;5.82;1.60;;;25.30;96.70;;;;;;4871393;29;20068;-78
2022/07/01 07:28:34;;;;;;;4.47;1.50;;;25.40;96.70;;;;;;4870863;29;20088;-79
2022/07/01 07:31:03;;;;;;;5.00;1.63;;;25.50;96.70;;;;;;4867174;29;20148;-79
2022/07/01 07:33:31;;;;;;;3.72;1.52;;;25.60;96.70;;;;;;4856679;29;20053;-79
2022/07/01 07:36:01;;;;;;;43.35;5.60;;;25.80;96.70;;;;;;4871985;29;20071;-77
2022/07/01 07:38:29;;;;;;;4.30;1.70;;;25.90;96.70;;;;;;4872069;29;20045;-78
2022/07/01 07:41:00;;;;;;;4.40;1.52;;;26.10;96.70;;;;;;4870325;29;20057;-78
2022/07/01 07:43:29;;;;;;;4.00;1.50;;;26.20;96.70;;;;;;4871492;29;20124;-78
2022/07/01 07:45:57;;;;;;;4.97;2.15;;;26.40;96.70;;;;;;4870813;29;20587;-78
2022/07/01 07:48:25;;;;;;;5.20;1.50;;;26.50;96.70;;;;;;4872453;29;20128;-79
2022/07/01 07:50:53;;;;;;;8.35;1.77;;;26.60;96.70;;;;;;4870241;29;20052;-78
2022/07/01 07:53:23;;;;;;;7.45;1.95;;;26.80;96.70;;;;;;4859129;29;20053;-78
2022/07/01 07:55:51;;;;;;;2.85;1.55;;;26.80;96.70;;;;;;4869442;29;21360;-79
2022/07/01 07:58:19;;;;;;;7.28;1.75;;;26.90;96.70;;;;;;4875103;29;20095;-79
2022/07/01 08:00:47;;;;;;;11.13;2.22;;;27.00;96.70;;;;;;4869414;29;20532;-79
2022/07/01 08:03:16;;;;;;;2.95;1.88;;;27.10;96.70;;;;;;4871080;29;20041;-78
2022/07/01 08:05:45;;;;;;;4.68;1.77;;;27.10;96.70;;;;;;4884751;29;20221;-79
2022/07/01 08:08:13;;;;;;;2.50;1.58;;;27.20;96.70;;;;;;4870013;29;20072;-79
2022/07/01 08:10:43;;;;;;;6.32;1.67;;;27.20;96.70;;;;;;4867838;29;20057;-79
2022/07/01 08:13:11;;;;;;;2.53;1.90;;;27.40;96.70;;;;;;4855217;29;20056;-78
2022/07/01 08:15:39;;;;;;;4.80;1.60;;;27.40;96.70;;;;;;4869492;29;20377;-78
2022/07/01 08:18:09;;;;;;;2.88;1.42;;;27.50;96.70;;;;;;4860873;29;20065;-78
2022/07/01 08:20:37;;;;;;;3.90;1.50;;;27.60;96.70;;;;;;4869705;29;20192;-76
2022/07/01 08:23:05;;;;;;;3.78;1.23;;;27.60;96.70;;;;;;4885408;29;20511;-78
2022/07/01 08:25:33;;;;;;;5.82;1.67;;;27.70;96.70;;;;;;4868248;29;20523;-79
2022/07/01 08:28:04;;;;;;;6.00;1.42;;;27.80;96.70;;;;;;4859936;29;20076;-78
2022/07/01 08:30:32;;;;;;;3.95;1.60;;;27.80;96.70;;;;;;4870484;29;20053;-78
2022/07/01 08:33:00;;;;;;;4.68;1.55;;;27.80;96.70;;;;;;4869475;29;20056;-78
2022/07/01 08:35:29;;;;;;;3.97;1.67;;;27.80;96.70;;;;;;4868967;29;20045;-80
2022/07/01 08:37:57;;;;;;;2.47;1.15;;;27.70;96.70;;;;;;4874133;29;20104;-81
2022/07/01 08:40:27;;;;;;;2.60;1.45;;;27.70;96.70;;;;;;4875087;29;20041;-79
2022/07/01 08:42:59;;;;;;;4.40;1.70;;;27.70;96.70;;;;;;4891481;29;20056;-81
2022/07/01 08:45:30;;;;;;;5.57;1.65;;;27.70;96.70;;;;;;4876506;29;20044;-82
2022/07/01 08:48:02;;;;;;;2.90;1.50;;;27.80;96.70;;;;;;4878088;29;20052;-81
2022/07/01 08:50:33;;;;;;;4.40;1.50;;;27.80;96.70;;;;;;4876165;29;20053;-82
2022/07/01 08:53:01;;;;;;;4.13;1.40;;;27.90;96.50;;;;;;4876536;29;20072;-84
2022/07/01 08:55:29;;;;;;;4.53;1.40;;;27.90;96.70;;;;;;4892128;29;20048;-82
2022/07/01 08:57:58;;;;;;;3.03;1.10;;;27.90;96.20;;;;;;4872205;29;20053;-81
2022/07/01 09:00:32;;;;;;;4.55;1.63;;;27.90;95.10;;;;;;4871955;29;20604;-80
2022/07/01 09:03:03;;;;;;;5.00;1.40;;;27.90;95.90;;;;;;4871639;29;20057;-83
2022/07/01 09:05:31;;;;;;;3.15;1.55;;;27.90;95.30;;;;;;4872545;29;20041;-84
2022/07/01 09:08:02;;;;;;;6.65;2.03;;;27.90;95.60;;;;;;4868054;29;20061;-86
2022/07/01 09:10:34;;;;;;;3.15;1.48;;;27.90;96.50;;;;;;4868078;29;20049;-87
2022/07/01 09:13:07;;;;;;;3.08;1.20;;;28.00;96.10;;;;;;4885411;29;20061;-83
2022/07/01 09:15:38;;;;;;;5.05;1.55;;;28.00;95.40;;;;;;4873804;29;20690;-81
2022/07/01 09:18:10;;;;;;;7.07;1.90;;;28.10;95.00;;;;;;4875783;29;20061;-81
2022/07/01 09:20:41;;;;;;;5.22;1.80;;;28.20;94.90;;;;;;4875994;29;20057;-82
2022/07/01 09:23:11;;;;;;;4.40;1.50;;;28.40;95.70;;;;;;4889863;29;20117;-78
2022/07/01 09:25:44;;;;;;;8.50;1.77;;;28.50;94.10;;;;;;4871196;29;20053;-78
2022/07/01 09:28:24;;;;;;;4.35;1.50;;;28.60;95.10;;;;;;4873407;29;20521;-78
2022/07/01 09:30:59;;;;;;;9.90;2.83;;;28.70;95.00;;;;;;4876245;29;20079;-81
2022/07/01 09:33:29;;;;;;;4.32;1.80;;;28.70;94.50;;;;;;4871210;29;20511;-80
2022/07/01 09:35:59;;;;;;;5.30;1.60;;;28.80;95.10;;;;;;4858043;29;20504;-81
2022/07/01 09:38:27;;;;;;;6.07;2.13;;;29.00;94.70;;;;;;4872863;29;20188;-81
2022/07/01 09:41:01;;;;;;;5.13;1.70;;;29.10;94.40;;;;;;4888300;29;20052;-81
2022/07/01 09:43:30;;;;;;;8.82;2.00;;;29.20;94.30;;;;;;4874021;29;20051;-80
2022/07/01 09:46:04;;;;;;;2.80;1.50;;;29.20;94.40;;;;;;4871869;29;20045;-80
2022/07/01 09:48:46;;;;;;;6.55;1.70;;;29.30;94.70;;;;;;4875374;29;20045;-80
2022/07/01 09:51:49;;;;;;;5.50;1.90;;;29.20;95.20;;;;;;4872900;29;21060;-80
2022/07/01 09:54:17;;;;;;;4.03;1.63;;;29.30;95.40;;;;;;4858347;29;20073;-81
2022/07/01 09:56:46;;;;;;;4.20;1.35;;;29.40;95.30;;;;;;4880049;29;20065;-77
2022/07/01 09:59:17;;;;;;;5.68;1.60;;;29.40;95.70;;;;;;4860878;29;20085;-81
2022/07/01 10:01:47;;;;;;;3.10;1.58;;;29.40;96.50;;;;;;4875741;29;20551;-82
2022/07/01 10:04:16;;;;;;;4.18;1.50;;;29.50;96.70;;;;;;4876164;29;20079;-83
2022/07/01 10:07:18;;;;;;;3.85;1.42;;;29.60;96.70;;;;;;4875445;29;20108;-82
2022/07/01 10:10:03;;;;;;;4.70;1.55;;;29.70;96.70;;;;;;4878802;29;20053;-82
2022/07/01 10:12:39;;;;;;;3.95;2.15;;;29.70;96.70;;;;;;4874755;29;20048;-82
2022/07/01 10:15:10;;;;;;;6.93;1.63;;;29.80;96.70;;;;;;4873930;29;20144;-81
2022/07/01 10:17:45;;;;;;;3.90;1.50;;;29.90;96.70;;;;;;4873884;29;20057;-82
2022/07/01 10:20:16;;;;;;;3.80;1.90;;;30.00;96.10;;;;;;4869447;29;20072;-82
2022/07/01 10:22:51;;;;;;;3.35;1.80;;;30.10;96.50;;;;;;4871276;29;20249;-81
2022/07/01 10:25:41;;;;;;;6.75;1.40;;;30.10;96.50;;;;;;4874452;29;20056;-82
2022/07/01 10:28:14;;;;;;;5.05;1.50;;;30.20;96.10;;;;;;4871515;29;20041;-82
2022/07/01 10:31:01;;;;;;;5.10;1.60;;;30.30;94.70;;;;;;4874613;29;20056;-82
2022/07/01 10:33:41;;;;;;;4.82;2.10;;;30.50;95.30;;;;;;4884462;29;20528;-82
2022/07/01 10:36:13;;;;;;;2.53;1.02;;;30.60;95.00;;;;;;4874906;29;20048;-82
2022/07/01 10:39:22;;;;;;;3.60;1.17;;;30.70;94.00;;;;;;4858151;29;20484;-82
2022/07/01 10:41:59;;;;;;;5.10;1.48;;;30.80;93.50;;;;;;4871729;29;20053;-82
2022/07/01 10:45:07;;;;;;;9.85;1.92;;;31.00;93.80;;;;;;4888044;29;20049;-83
2022/07/01 10:47:36;;;;;;;4.43;1.63;;;31.00;94.00;;;;;;4870026;29;20625;-82
2022/07/01 10:50:11;;;;;;;5.90;1.50;;;31.20;93.70;;;;;;4880425;29;20053;-82
2022/07/01 10:52:58;;;;;;;4.40;1.63;;;31.30;93.40;;;;;;4873286;29;20192;-83
2022/07/01 10:55:37;;;;;;;3.67;1.60;;;31.30;94.10;;;;;;4873934;29;20045;-82
2022/07/01 10:58:07;;;;;;;3.58;1.60;;;31.40;94.20;;;;;;4873451;29;20457;-83
2022/07/01 11:00:40;;;;;;;4.68;1.55;;;31.60;94.70;;;;;;4859853;29;20049;-83
2022/07/01 11:03:22;;;;;;;5.68;1.55;;;31.60;92.80;;;;;;4872974;29;20078;-83
2022/07/01 11:05:55;;;;;;;3.65;1.48;;;31.60;93.10;;;;;;4870127;29;20057;-83
2022/07/01 11:08:24;;;;;;;4.38;1.73;;;31.60;92.40;;;;;;4888965;29;20516;-82
2022/07/01 11:11:02;;;;;;;5.72;1.92;;;31.50;93.30;;;;;;4871918;29;20048;-82
2022/07/01 11:13:31;;;;;;;4.00;1.77;;;31.70;93.00;;;;;;4871295;29;20053;-83
2022/07/01 11:16:00;;;;;;;3.45;1.58;;;31.70;93.40;;;;;;4857544;29;20045;-83
2022/07/01 11:18:30;;;;;;;2.90;1.67;;;31.80;92.70;;;;;;4873699;29;20057;-83
2022/07/01 11:21:10;;;;;;;4.65;1.83;;;31.80;92.80;;;;;;4875538;29;20045;-83
2022/07/01 11:23:39;;;;;;;4.10;1.50;;;31.90;93.20;;;;;;4872856;29;20076;-82
2022/07/01 11:26:21;;;;;;;3.83;1.90;;;32.00;92.50;;;;;;4872592;29;20053;-83
2022/07/01 11:28:50;;;;;;;4.72;1.60;;;32.00;91.90;;;;;;4862517;29;20140;-83
2022/07/01 11:31:28;;;;;;;2.58;1.67;;;32.20;93.30;;;;;;4888066;29;20615;-83
2022/07/01 11:33:56;;;;;;;5.70;1.67;;;32.30;92.50;;;;;;4871874;29;20140;-83
2022/07/01 11:39:22;;;;;;;4.57;1.80;;;32.30;92.30;;;;;;4886791;29;20413;-83
2022/07/01 11:41:55;;;;;;;2.95;1.67;;;32.40;92.20;;;;;;4880715;29;20049;-83
2022/07/01 11:44:32;;;;;;;3.55;1.67;;;32.40;92.50;;;;;;4874106;29;20053;-83
2022/07/01 11:47:01;;;;;;;2.78;1.70;;;32.50;92.50;;;;;;4872693;29;20053;-82
2022/07/01 11:49:29;;;;;;;3.08;1.80;;;32.50;92.70;;;;;;4874406;29;20060;-81
2022/07/01 11:52:00;;;;;;;5.15;1.60;;;32.50;92.20;;;;;;4871055;29;20132;-81
2022/07/01 11:54:29;;;;;;;6.28;1.65;;;32.50;92.50;;;;;;4872087;29;20091;-83
2022/07/01 11:57:09;;;;;;;6.05;1.95;;;32.50;92.30;;;;;;4873676;29;20048;-83
2022/07/01 11:59:40;;;;;;;3.13;1.48;;;32.50;92.70;;;;;;4873940;29;20049;-81
2022/07/01 12:02:11;;;;;;;3.55;1.60;;;32.60;93.60;;;;;;4872167;29;20064;-81
2022/07/01 12:04:40;;;;;;;6.85;1.70;;;32.50;94.40;;;;;;4875349;29;20076;-82
2022/07/01 12:07:10;;;;;;;6.97;1.92;;;32.50;95.00;;;;;;4871102;29;20048;-82
2022/07/01 12:09:38;;;;;;;5.03;2.00;;;32.50;95.80;;;;;;4857030;29;20055;-83
2022/07/01 12:12:14;;;;;;;5.22;1.80;;;32.50;95.20;;;;;;4875156;29;20382;-82
2022/07/01 12:15:01;;;;;;;3.22;1.55;;;32.40;96.10;;;;;;4870401;29;20049;-81
2022/07/01 12:17:29;;;;;;;;;;;32.50;95.60;;;;;;4884383;29;20056;-82
2022/07/01 12:20:06;;;;;;;5.75;1.92;;;32.60;95.60;;;;;;4872039;29;19934;-81
2022/07/01 12:22:36;;;;;;;4.50;1.73;;;32.60;95.90;;;;;;4873093;29;20049;-82
2022/07/01 12:25:09;;;;;;;3.50;1.50;;;32.60;95.70;;;;;;4872768;29;20045;-81
2022/07/01 12:27:38;;;;;;;4.40;1.73;;;32.60;95.80;;;;;;4864434;29;20117;-81
2022/07/01 12:30:08;;;;;;;5.00;1.80;;;32.70;95.70;;;;;;4855957;29;20045;-80
2022/07/01 12:32:39;;;;;;;3.25;1.50;;;32.80;95.40;;;;;;4871557;29;20527;-81
2022/07/01 12:38:07;;;;;;;6.50;2.03;;;32.60;95.80;;;;;;4872581;29;20068;-81
2022/07/01 12:44:19;;;;;;;7.07;1.50;;;32.60;96.00;;;;;;4873453;29;20104;-83
2022/07/01 12:46:48;;;;;;;2.88;1.58;;;32.50;95.20;;;;;;4871992;29;20053;-84
2022/07/01 12:49:21;;;;;;;4.40;1.63;;;32.70;95.60;;;;;;4871996;29;20049;-82
2022/07/01 12:51:51;;;;;;;5.55;1.70;;;32.60;95.50;;;;;;4856610;29;20057;-84
2022/07/01 12:54:39;;;;;;;4.68;2.15;;;32.70;95.50;;;;;;4871751;29;20048;-83
2022/07/01 12:57:09;;;;;;;5.40;1.63;;;32.80;95.20;;;;;;4871418;29;20148;-84
2022/07/01 12:59:37;;;;;;;6.45;2.38;;;33.00;93.80;;;;;;4855912;29;20544;-83
2022/07/01 13:02:07;;;;;;;6.53;1.83;;;32.90;94.20;;;;;;4884231;29;20081;-83
2022/07/01 13:04:35;;;;;;;5.85;1.98;;;33.00;94.40;;;;;;4859613;29;20428;-83
2022/07/01 13:07:04;;;;;;;6.05;1.67;;;33.20;94.90;;;;;;4871483;29;20575;-82
2022/07/01 13:09:33;;;;;;;5.80;2.00;;;33.30;95.10;;;;;;4876521;29;20041;-82
2022/07/01 13:12:08;;;;;;;3.92;1.77;;;33.40;94.90;;;;;;4871296;29;20875;-83
2022/07/01 13:14:37;;;;;;;5.80;1.98;;;33.40;94.80;;;;;;4876295;29;20092;-82
2022/07/01 13:17:06;;;;;;;6.20;1.90;;;33.40;94.90;;;;;;4856039;29;20153;-82
2022/07/01 13:19:35;;;;;;;2.80;1.63;;;33.60;94.10;;;;;;4872856;29;20523;-83
2022/07/01 13:22:05;;;;;;;3.78;1.85;;;33.70;94.50;;;;;;4872843;29;20527;-81
2022/07/01 13:24:34;;;;;;;4.32;1.58;;;33.70;94.70;;;;;;4871453;29;20151;-83
2022/07/01 13:27:03;;;;;;;4.43;1.67;;;33.70;95.00;;;;;;4871319;29;20049;-82
2022/07/01 13:29:33;;;;;;;4.15;1.50;;;33.90;94.90;;;;;;4871407;29;20068;-83